Time,TemperatureF,DewpointF,PressureIn,WindDirection,WindDirectionDegrees,WindSpeedMPH,WindSpeedGustMPH,Humidity,HourlyPrecipIn,Conditions,Clouds,dailyrainin,SoftwareType,DateUTC
2013-07-22 00:03:00,59.2,57.2,29.84,ESE,117,0.0,0.0,93,0.00,,,0.00,Wunderground v.1.15,2013-07-22 05:03:00,
2013-07-22 00:08:00,59.2,57.2,29.84,ESE,117,0.0,0.0,93,0.00,,,0.00,Wunderground v.1.15,2013-07-22 05:08:00,
2013-07-22 00:13:00,59.3,57.6,29.84,ESE,117,0.0,0.0,94,0.00,,,0.00,Wunderground v.1.15,2013-07-22 05:13:00,
2013-07-22 00:18:00,59.2,57.5,29.84,ESE,117,0.0,0.0,94,0.00,,,0.00,Wunderground v.1.15,2013-07-22 05:18:00,
2013-07-22 00:24:00,59.2,57.5,29.84,ESE,118,0.0,0.0,94,0.00,,,0.00,Wunderground v.1.15,2013-07-22 05:24:00,
2013-07-22 00:29:00,59.2,57.5,29.84,ESE,118,0.0,0.0,94,0.00,,,0.00,Wunderground v.1.15,2013-07-22 05:29:00,
2013-07-22 00:34:00,59.3,57.6,29.83,ESE,118,0.0,0.0,94,0.00,,,0.00,Wunderground v.1.15,2013-07-22 05:34:00,
2013-07-22 00:40:00,59.2,57.5,29.83,ESE,118,0.0,0.0,94,0.00,,,0.00,Wunderground v.1.15,2013-07-22 05:40:00,
2013-07-22 00:45:00,59.1,57.4,29.83,ESE,118,0.0,0.0,94,0.00,,,0.00,Wunderground v.1.15,2013-07-22 05:45:00,
2013-07-22 00:51:00,58.9,56.9,29.83,ESE,118,0.0,0.0,93,0.00,,,0.00,Wunderground v.1.15,2013-07-22 05:51:00,
2013-07-22 00:56:00,58.7,57.0,29.83,ESE,118,0.0,0.0,94,0.00,,,0.00,Wunderground v.1.15,2013-07-22 05:56:00,
2013-07-22 01:02:00,58.5,56.5,29.83,ESE,118,0.0,0.0,93,0.00,,,0.00,Wunderground v.1.15,2013-07-22 06:02:00,
2013-07-22 01:08:00,58.4,56.4,29.83,ESE,118,0.0,0.0,93,0.00,,,0.00,Wunderground v.1.15,2013-07-22 06:08:00,
2013-07-22 01:13:00,58.3,56.6,29.83,ESE,118,0.0,0.0,94,0.00,,,0.00,Wunderground v.1.15,2013-07-22 06:13:00,
2013-07-22 01:18:00,58.2,56.5,29.83,ESE,118,0.0,0.0,94,0.00,,,0.00,Wunderground v.1.15,2013-07-22 06:18:00,
2013-07-22 01:24:00,58.4,57.0,29.83,ESE,118,0.0,0.0,95,0.00,,,0.00,Wunderground v.1.15,2013-07-22 06:24:00,
2013-07-22 01:29:00,58.7,57.3,29.82,ESE,118,0.0,0.0,95,0.00,,,0.00,Wunderground v.1.15,2013-07-22 06:29:00,
2013-07-22 01:35:00,58.8,57.4,29.82,ESE,118,0.0,0.0,95,0.00,,,0.00,Wunderground v.1.15,2013-07-22 06:35:00,
2013-07-22 01:40:00,59.0,57.6,29.81,ESE,118,0.0,0.0,95,0.00,,,0.00,Wunderground v.1.15,2013-07-22 06:40:00,
2013-07-22 01:46:00,59.1,57.7,29.82,ESE,118,0.0,0.0,95,0.00,,,0.00,Wunderground v.1.15,2013-07-22 06:46:00,
2013-07-22 01:51:00,59.2,57.8,29.81,ESE,118,0.0,0.0,95,0.00,,,0.00,Wunderground v.1.15,2013-07-22 06:51:00,
2013-07-22 01:57:00,59.3,57.9,29.81,SE,128,0.0,0.0,95,0.00,,,0.00,Wunderground v.1.15,2013-07-22 06:57:00,
2013-07-22 02:03:00,59.4,58.0,29.81,SE,132,0.0,0.0,95,0.00,,,0.00,Wunderground v.1.15,2013-07-22 07:03:00,
2013-07-22 02:08:00,59.4,58.0,29.81,SE,132,0.0,0.0,95,0.00,,,0.00,Wunderground v.1.15,2013-07-22 07:08:00,
2013-07-22 02:14:00,59.4,58.0,29.82,SE,132,0.0,0.0,95,0.00,,,0.00,Wunderground v.1.15,2013-07-22 07:14:00,
2013-07-22 02:19:00,59.6,58.2,29.82,SE,132,0.0,0.0,95,0.00,,,0.00,Wunderground v.1.15,2013-07-22 07:19:00,
2013-07-22 02:24:00,59.6,58.2,29.83,SE,132,0.0,0.0,95,0.00,,,0.00,Wunderground v.1.15,2013-07-22 07:24:00,
2013-07-22 02:30:00,59.6,58.2,29.82,SE,132,0.0,0.0,95,0.00,,,0.00,Wunderground v.1.15,2013-07-22 07:30:00,
2013-07-22 02:35:00,59.7,58.3,29.82,SE,132,0.0,0.0,95,0.00,,,0.00,Wunderground v.1.15,2013-07-22 07:35:00,
2013-07-22 02:41:00,59.7,58.3,29.83,SE,132,0.0,0.0,95,0.00,,,0.00,Wunderground v.1.15,2013-07-22 07:41:00,
2013-07-22 02:47:00,59.7,58.3,29.82,SE,132,0.0,0.0,95,0.00,,,0.00,Wunderground v.1.15,2013-07-22 07:47:00,
2013-07-22 02:52:00,59.7,58.6,29.82,SE,132,0.0,0.0,96,0.00,,,0.00,Wunderground v.1.15,2013-07-22 07:52:00,
2013-07-22 02:57:00,59.8,58.7,29.82,SE,132,0.0,0.0,96,0.00,,,0.00,Wunderground v.1.15,2013-07-22 07:57:00,
2013-07-22 03:02:00,59.8,58.7,29.81,SE,132,0.0,0.0,96,0.00,,,0.00,Wunderground v.1.15,2013-07-22 08:02:00,
2013-07-22 03:08:00,59.9,58.8,29.81,SE,131,0.0,0.0,96,0.00,,,0.00,Wunderground v.1.15,2013-07-22 08:08:00,
2013-07-22 03:14:00,60.1,59.0,29.81,SSE,152,0.0,0.0,96,0.00,,,0.00,Wunderground v.1.15,2013-07-22 08:14:00,
2013-07-22 03:20:00,60.3,59.2,29.80,South,186,0.0,0.0,96,0.00,,,0.00,Wunderground v.1.15,2013-07-22 08:20:00,
2013-07-22 03:25:00,60.5,59.4,29.80,SSE,154,0.0,0.0,96,0.00,,,0.00,Wunderground v.1.15,2013-07-22 08:25:00,
2013-07-22 03:31:00,60.7,59.6,29.80,SSE,167,0.0,0.0,96,0.00,,,0.00,Wunderground v.1.15,2013-07-22 08:31:00,
2013-07-22 03:36:00,60.7,59.6,29.80,South,190,0.0,0.0,96,0.00,,,0.00,Wunderground v.1.15,2013-07-22 08:36:00,
2013-07-22 03:42:00,60.8,59.7,29.79,ESE,121,0.0,0.0,96,0.00,,,0.00,Wunderground v.1.15,2013-07-22 08:42:00,
2013-07-22 03:47:00,60.8,59.7,29.79,East,84,0.0,0.0,96,0.00,,,0.00,Wunderground v.1.15,2013-07-22 08:47:00,
2013-07-22 03:53:00,60.9,59.8,29.79,SSE,157,0.0,0.0,96,0.00,,,0.00,Wunderground v.1.15,2013-07-22 08:53:00,
2013-07-22 03:59:00,61.0,59.9,29.79,SE,130,0.0,0.0,96,0.00,,,0.00,Wunderground v.1.15,2013-07-22 08:59:00,
2013-07-22 04:04:00,60.9,59.8,29.78,South,184,0.0,0.0,96,0.00,,,0.00,Wunderground v.1.15,2013-07-22 09:04:00,
2013-07-22 04:10:00,60.9,59.8,29.78,ESE,107,0.0,0.0,96,0.00,,,0.00,Wunderground v.1.15,2013-07-22 09:10:00,
2013-07-22 04:15:00,60.9,59.8,29.78,SSE,155,0.0,0.0,96,0.00,,,0.00,Wunderground v.1.15,2013-07-22 09:15:00,
2013-07-22 04:20:00,60.9,59.8,29.77,SSE,153,0.0,0.0,96,0.00,,,0.00,Wunderground v.1.15,2013-07-22 09:20:00,
2013-07-22 04:26:00,60.9,59.8,29.77,SE,124,0.0,0.0,96,0.00,,,0.00,Wunderground v.1.15,2013-07-22 09:26:00,
2013-07-22 04:31:00,61.0,59.9,29.77,South,177,0.0,0.0,96,0.00,,,0.00,Wunderground v.1.15,2013-07-22 09:31:00,
2013-07-22 04:37:00,60.9,59.8,29.77,SE,140,0.0,0.0,96,0.00,,,0.00,Wunderground v.1.15,2013-07-22 09:37:00,
2013-07-22 04:42:00,60.9,59.8,29.77,WNW,295,0.0,0.0,96,0.00,,,0.00,Wunderground v.1.15,2013-07-22 09:42:00,
2013-07-22 04:48:00,61.0,59.9,29.77,South,170,0.0,0.0,96,0.00,,,0.00,Wunderground v.1.15,2013-07-22 09:48:00,
2013-07-22 04:53:00,61.0,59.9,29.77,South,170,0.0,0.0,96,0.00,,,0.00,Wunderground v.1.15,2013-07-22 09:53:00,
2013-07-22 04:59:00,61.0,59.9,29.77,SE,132,0.0,0.0,96,0.00,,,0.00,Wunderground v.1.15,2013-07-22 09:59:00,
2013-07-22 05:05:00,61.0,59.9,29.77,SE,145,0.0,0.0,96,0.00,,,0.00,Wunderground v.1.15,2013-07-22 10:05:00,
2013-07-22 05:11:00,61.0,59.9,29.77,SE,138,0.0,0.0,96,0.00,,,0.00,Wunderground v.1.15,2013-07-22 10:11:00,
2013-07-22 05:16:00,61.0,59.9,29.77,ESE,103,0.0,0.0,96,0.00,,,0.00,Wunderground v.1.15,2013-07-22 10:16:00,
2013-07-22 05:22:00,61.0,59.9,29.77,SSE,163,0.0,0.0,96,0.00,,,0.00,Wunderground v.1.15,2013-07-22 10:22:00,
2013-07-22 05:28:00,61.1,60.0,29.77,ESE,118,0.0,0.0,96,0.00,,,0.00,Wunderground v.1.15,2013-07-22 10:28:00,
2013-07-22 05:33:00,61.0,59.9,29.77,SE,125,0.0,0.0,96,0.00,,,0.00,Wunderground v.1.15,2013-07-22 10:33:00,
2013-07-22 05:38:00,61.0,59.9,29.76,ESE,122,0.0,0.0,96,0.00,,,0.00,Wunderground v.1.15,2013-07-22 10:38:00,
2013-07-22 05:44:00,60.9,59.8,29.76,SE,142,0.0,0.0,96,0.00,,,0.00,Wunderground v.1.15,2013-07-22 10:44:00,
2013-07-22 05:50:00,60.8,59.7,29.77,SE,130,0.0,0.0,96,0.00,,,0.00,Wunderground v.1.15,2013-07-22 10:50:00,
2013-07-22 05:55:00,60.9,59.8,29.77,SSE,150,0.0,0.0,96,0.00,,,0.00,Wunderground v.1.15,2013-07-22 10:55:00,
2013-07-22 06:01:00,60.9,59.8,29.77,SE,140,0.0,0.0,96,0.00,,,0.00,Wunderground v.1.15,2013-07-22 11:01:00,
2013-07-22 06:07:00,60.8,59.7,29.78,ESE,117,0.0,0.0,96,0.00,,,0.00,Wunderground v.1.15,2013-07-22 11:07:00,
2013-07-22 06:12:00,60.7,59.6,29.78,SSE,164,0.0,0.0,96,0.00,,,0.00,Wunderground v.1.15,2013-07-22 11:12:00,
2013-07-22 06:18:00,60.7,59.6,29.78,ESE,117,0.0,0.0,96,0.00,,,0.00,Wunderground v.1.15,2013-07-22 11:18:00,
2013-07-22 06:23:00,60.8,59.7,29.78,SSE,162,0.0,0.0,96,0.00,,,0.00,Wunderground v.1.15,2013-07-22 11:23:00,
2013-07-22 06:29:00,60.9,59.8,29.79,SW,222,0.0,0.0,96,0.00,,,0.00,Wunderground v.1.15,2013-07-22 11:29:00,
2013-07-22 06:34:00,60.9,59.8,29.78,ESE,115,0.0,0.0,96,0.00,,,0.00,Wunderground v.1.15,2013-07-22 11:34:00,
2013-07-22 06:40:00,61.0,59.9,29.79,SE,142,0.0,0.0,96,0.00,,,0.00,Wunderground v.1.15,2013-07-22 11:40:00,
2013-07-22 06:45:00,61.1,60.0,29.79,ESE,103,0.0,0.0,96,0.00,,,0.00,Wunderground v.1.15,2013-07-22 11:45:00,
2013-07-22 06:51:00,61.1,60.0,29.79,SSE,148,0.0,0.0,96,0.00,,,0.00,Wunderground v.1.15,2013-07-22 11:51:00,
2013-07-22 06:56:00,61.2,60.1,29.79,ESE,103,0.0,0.0,96,0.00,,,0.00,Wunderground v.1.15,2013-07-22 11:56:00,
2013-07-22 07:01:00,61.2,60.1,29.78,SE,128,0.0,0.0,96,0.00,,,0.00,Wunderground v.1.15,2013-07-22 12:01:00,
2013-07-22 07:07:00,61.3,60.2,29.78,SSW,198,0.0,0.0,96,0.00,,,0.00,Wunderground v.1.15,2013-07-22 12:07:00,
2013-07-22 07:12:00,61.4,60.2,29.78,SSW,206,0.0,0.0,96,0.00,,,0.00,Wunderground v.1.15,2013-07-22 12:12:00,
2013-07-22 07:18:00,61.5,60.3,29.78,South,173,0.0,0.0,96,0.00,,,0.00,Wunderground v.1.15,2013-07-22 12:18:00,
2013-07-22 07:23:00,61.6,60.4,29.78,SSE,167,0.0,0.0,96,0.00,,,0.00,Wunderground v.1.15,2013-07-22 12:23:00,
2013-07-22 07:29:00,61.6,60.4,29.78,SSW,204,0.0,0.0,96,0.00,,,0.00,Wunderground v.1.15,2013-07-22 12:29:00,
2013-07-22 07:34:00,61.6,60.4,29.77,SSE,157,0.0,0.0,96,0.00,,,0.00,Wunderground v.1.15,2013-07-22 12:34:00,
2013-07-22 07:40:00,61.6,60.4,29.77,South,176,0.0,0.0,96,0.00,,,0.00,Wunderground v.1.15,2013-07-22 12:40:00,
2013-07-22 07:45:00,61.7,60.5,29.76,WSW,244,0.0,0.0,96,0.00,,,0.00,Wunderground v.1.15,2013-07-22 12:45:00,
2013-07-22 07:51:00,61.8,60.6,29.76,SSE,158,0.0,0.0,96,0.00,,,0.00,Wunderground v.1.15,2013-07-22 12:51:00,
2013-07-22 07:57:00,61.9,60.7,29.76,SSE,166,0.0,0.0,96,0.00,,,0.00,Wunderground v.1.15,2013-07-22 12:57:00,
2013-07-22 08:03:00,62.0,60.8,29.75,SE,130,0.0,0.0,96,0.00,,,0.00,Wunderground v.1.15,2013-07-22 13:03:00,
2013-07-22 08:08:00,62.0,60.6,29.75,SSE,157,0.0,0.0,95,0.00,,,0.00,Wunderground v.1.15,2013-07-22 13:08:00,
2013-07-22 08:14:00,62.1,60.7,29.75,SSW,210,0.0,0.0,95,0.00,,,0.00,Wunderground v.1.15,2013-07-22 13:14:00,
2013-07-22 08:19:00,62.3,60.8,29.75,SE,130,0.0,0.0,95,0.00,,,0.00,Wunderground v.1.15,2013-07-22 13:19:00,
2013-07-22 08:25:00,62.5,61.3,29.75,ESE,123,0.0,0.0,96,0.00,,,0.00,Wunderground v.1.15,2013-07-22 13:25:00,
2013-07-22 08:30:00,62.5,61.0,29.76,South,169,0.0,0.0,95,0.00,,,0.00,Wunderground v.1.15,2013-07-22 13:30:00,
2013-07-22 08:36:00,62.7,61.2,29.76,SE,144,0.0,0.0,95,0.00,,,0.00,Wunderground v.1.15,2013-07-22 13:36:00,
2013-07-22 08:41:00,62.7,61.2,29.75,South,186,0.0,0.0,95,0.00,,,0.00,Wunderground v.1.15,2013-07-22 13:41:00,
2013-07-22 08:47:00,62.8,61.3,29.75,SE,134,0.0,0.0,95,0.00,,,0.00,Wunderground v.1.15,2013-07-22 13:47:00,
2013-07-22 08:53:00,63.1,61.6,29.75,SE,132,0.0,0.0,95,0.00,,,0.00,Wunderground v.1.15,2013-07-22 13:53:00,
2013-07-22 08:58:00,63.1,61.6,29.74,ESE,120,0.0,0.0,95,0.00,,,0.00,Wunderground v.1.15,2013-07-22 13:58:00,
2013-07-22 09:04:00,63.3,61.8,29.75,SSE,147,0.0,0.0,95,0.00,,,0.00,Wunderground v.1.15,2013-07-22 14:04:00,
2013-07-22 09:10:00,63.5,62.0,29.75,SE,126,0.0,0.0,95,0.00,,,0.00,Wunderground v.1.15,2013-07-22 14:10:00,
2013-07-22 09:15:00,63.6,61.8,29.75,SSE,157,0.0,0.0,94,0.00,,,0.00,Wunderground v.1.15,2013-07-22 14:15:00,
2013-07-22 09:21:00,63.9,62.1,29.75,SE,146,0.0,0.0,94,0.00,,,0.00,Wunderground v.1.15,2013-07-22 14:21:00,
2013-07-22 09:27:00,64.0,62.2,29.74,South,185,0.0,0.0,94,0.00,,,0.00,Wunderground v.1.15,2013-07-22 14:27:00,
2013-07-22 09:33:00,64.4,62.6,29.74,WSW,242,0.0,0.0,94,0.00,,,0.00,Wunderground v.1.15,2013-07-22 14:33:00,
2013-07-22 09:39:00,64.5,62.4,29.75,SSW,208,0.0,0.0,93,0.00,,,0.00,Wunderground v.1.15,2013-07-22 14:39:00,
2013-07-22 09:44:00,64.7,62.6,29.75,SSW,192,0.0,0.0,93,0.00,,,0.00,Wunderground v.1.15,2013-07-22 14:44:00,
2013-07-22 09:50:00,65.0,62.6,29.75,SSE,147,0.0,0.0,92,0.00,,,0.00,Wunderground v.1.15,2013-07-22 14:50:00,
2013-07-22 09:56:00,65.4,63.0,29.74,West,263,0.0,0.0,92,0.00,,,0.00,Wunderground v.1.15,2013-07-22 14:56:00,
2013-07-22 10:01:00,65.8,63.4,29.74,SSW,212,0.0,0.0,92,0.00,,,0.00,Wunderground v.1.15,2013-07-22 15:01:00,
2013-07-22 10:07:00,66.3,63.6,29.73,SSW,211,0.0,0.0,91,0.00,,,0.00,Wunderground v.1.15,2013-07-22 15:07:00,
2013-07-22 10:13:00,66.8,63.8,29.73,WSW,245,0.0,0.0,90,0.00,,,0.00,Wunderground v.1.15,2013-07-22 15:13:00,
2013-07-22 10:18:00,67.3,63.9,29.73,South,182,0.0,0.0,89,0.00,,,0.00,Wunderground v.1.15,2013-07-22 15:18:00,
2013-07-22 10:24:00,67.6,64.2,29.73,SE,126,0.0,0.0,89,0.00,,,0.00,Wunderground v.1.15,2013-07-22 15:24:00,
2013-07-22 10:30:00,68.1,64.7,29.73,SSE,161,0.0,0.0,89,0.00,,,0.00,Wunderground v.1.15,2013-07-22 15:30:00,
2013-07-22 10:35:00,68.2,64.5,29.73,SSE,162,0.0,0.0,88,0.00,,,0.00,Wunderground v.1.15,2013-07-22 15:35:00,
2013-07-22 10:41:00,68.4,64.4,29.72,NW,311,0.0,0.0,87,0.00,,,0.00,Wunderground v.1.15,2013-07-22 15:41:00,
2013-07-22 10:47:00,68.5,64.5,29.72,South,169,0.0,0.0,87,0.00,,,0.00,Wunderground v.1.15,2013-07-22 15:47:00,
2013-07-22 10:53:00,69.1,65.1,29.72,SW,230,0.0,0.0,87,0.00,,,0.00,Wunderground v.1.15,2013-07-22 15:53:00,
2013-07-22 10:59:00,69.7,66.0,29.72,NW,314,0.0,0.0,88,0.00,,,0.00,Wunderground v.1.15,2013-07-22 15:59:00,
2013-07-22 11:04:00,70.3,65.6,29.71,North,355,0.0,0.0,85,0.00,,,0.00,Wunderground v.1.15,2013-07-22 16:04:00,
2013-07-22 11:10:00,70.8,65.7,29.71,SSW,205,0.0,0.0,84,0.00,,,0.00,Wunderground v.1.15,2013-07-22 16:10:00,
2013-07-22 11:16:00,71.6,66.8,29.71,NNW,339,0.0,0.0,85,0.00,,,0.00,Wunderground v.1.15,2013-07-22 16:16:00,
2013-07-22 11:22:00,72.4,66.6,29.71,SW,215,0.0,0.0,82,0.00,,,0.00,Wunderground v.1.15,2013-07-22 16:22:00,
2013-07-22 11:27:00,72.6,66.4,29.71,SSW,192,0.0,0.0,81,0.00,,,0.00,Wunderground v.1.15,2013-07-22 16:27:00,
2013-07-22 11:32:00,72.7,66.2,29.71,SSW,211,0.0,0.0,80,0.00,,,0.00,Wunderground v.1.15,2013-07-22 16:32:00,
2013-07-22 11:38:00,73.1,67.3,29.70,SE,128,0.0,0.0,82,0.00,,,0.00,Wunderground v.1.15,2013-07-22 16:38:00,
2013-07-22 11:43:00,73.4,66.9,29.70,SE,138,0.0,0.0,80,0.00,,,0.00,Wunderground v.1.15,2013-07-22 16:43:00,
2013-07-22 11:49:00,73.7,67.5,29.70,South,184,0.0,0.0,81,0.00,,,0.00,Wunderground v.1.15,2013-07-22 16:49:00,
2013-07-22 11:55:00,74.3,67.4,29.69,NNE,23,0.0,0.0,79,0.00,,,0.00,Wunderground v.1.15,2013-07-22 16:55:00,
2013-07-22 12:00:00,74.4,67.5,29.69,NNW,333,0.0,0.0,79,0.00,,,0.00,Wunderground v.1.15,2013-07-22 17:00:00,
2013-07-22 12:06:00,74.9,67.9,29.69,SE,139,0.0,0.0,79,0.00,,,0.00,Wunderground v.1.15,2013-07-22 17:06:00,
2013-07-22 12:12:00,75.3,68.0,29.69,SE,129,0.0,0.0,78,0.00,,,0.00,Wunderground v.1.15,2013-07-22 17:12:00,
2013-07-22 12:18:00,75.2,67.5,29.69,South,190,0.0,0.0,77,0.00,,,0.00,Wunderground v.1.15,2013-07-22 17:18:00,
2013-07-22 12:23:00,75.1,67.0,29.68,SSE,149,0.0,0.0,76,0.00,,,0.00,Wunderground v.1.15,2013-07-22 17:23:00,
2013-07-22 12:29:00,75.7,68.0,29.68,WNW,300,0.0,0.0,77,0.00,,,0.00,Wunderground v.1.15,2013-07-22 17:29:00,
2013-07-22 12:34:00,76.0,67.1,29.68,WSW,244,0.0,0.0,74,0.00,,,0.00,Wunderground v.1.15,2013-07-22 17:34:00,
2013-07-22 12:40:00,76.3,67.8,29.68,WNW,300,0.0,0.0,75,0.00,,,0.00,Wunderground v.1.15,2013-07-22 17:40:00,
2013-07-22 12:46:00,76.7,68.2,29.67,SW,233,0.0,0.0,75,0.00,,,0.00,Wunderground v.1.15,2013-07-22 17:46:00,
2013-07-22 12:51:00,76.7,68.2,29.67,ESE,123,0.0,0.0,75,0.00,,,0.00,Wunderground v.1.15,2013-07-22 17:51:00,
2013-07-22 12:57:00,76.8,67.9,29.67,NW,319,0.0,0.0,74,0.00,,,0.00,Wunderground v.1.15,2013-07-22 17:57:00,
2013-07-22 13:02:00,77.1,68.2,29.67,NW,305,0.0,0.0,74,0.00,,,0.00,Wunderground v.1.15,2013-07-22 18:02:00,
2013-07-22 13:09:00,77.3,68.8,29.67,SW,224,0.0,0.0,75,0.00,,,0.00,Wunderground v.1.15,2013-07-22 18:09:00,
2013-07-22 13:15:00,77.7,69.1,29.67,NNW,336,0.0,0.0,75,0.00,,,0.00,Wunderground v.1.15,2013-07-22 18:15:00,
2013-07-22 13:20:00,78.3,68.5,29.67,SW,222,0.0,0.0,72,0.00,,,0.00,Wunderground v.1.15,2013-07-22 18:20:00,
2013-07-22 13:26:00,78.1,68.3,29.66,SSW,198,0.0,0.0,72,0.00,,,0.00,Wunderground v.1.15,2013-07-22 18:26:00,
2013-07-22 13:31:00,78.4,69.0,29.66,SE,135,0.0,0.0,73,0.00,,,0.00,Wunderground v.1.15,2013-07-22 18:31:00,
2013-07-22 13:37:00,78.9,69.9,29.66,WSW,240,0.0,0.0,74,0.00,,,0.00,Wunderground v.1.15,2013-07-22 18:37:00,
2013-07-22 13:44:00,79.3,69.9,29.65,WSW,254,0.0,0.0,73,0.00,,,0.00,Wunderground v.1.15,2013-07-22 18:44:00,
2013-07-22 13:51:00,79.3,69.9,29.65,SE,144,0.0,0.0,73,0.00,,,0.00,Wunderground v.1.15,2013-07-22 18:51:00,
2013-07-22 13:56:00,79.6,70.2,29.65,SW,236,0.0,0.0,73,0.00,,,0.00,Wunderground v.1.15,2013-07-22 18:56:00,
2013-07-22 14:02:00,79.8,70.0,29.64,West,265,0.0,0.0,72,0.00,,,0.00,Wunderground v.1.15,2013-07-22 19:02:00,
2013-07-22 14:07:00,79.8,70.0,29.65,SSW,211,0.0,0.0,72,0.00,,,0.00,Wunderground v.1.15,2013-07-22 19:07:00,
2013-07-22 14:12:00,79.5,69.3,29.64,SW,229,0.0,0.0,71,0.00,,,0.00,Wunderground v.1.15,2013-07-22 19:12:00,
2013-07-22 14:17:00,79.2,69.8,29.64,SW,220,0.0,0.0,73,0.00,,,0.00,Wunderground v.1.15,2013-07-22 19:17:00,
2013-07-22 14:23:00,79.0,69.6,29.64,West,275,0.0,0.0,73,0.00,,,0.00,Wunderground v.1.15,2013-07-22 19:23:00,
2013-07-22 14:30:00,79.7,70.7,29.64,WSW,252,0.0,0.0,74,0.00,,,0.00,Wunderground v.1.15,2013-07-22 19:30:00,
2013-07-22 14:36:00,80.3,71.3,29.63,West,259,0.0,0.0,74,0.00,,,0.00,Wunderground v.1.15,2013-07-22 19:36:00,
2013-07-22 14:41:00,80.2,70.4,29.64,SW,234,0.0,0.0,72,0.00,,,0.00,Wunderground v.1.15,2013-07-22 19:41:00,
2013-07-22 14:46:00,79.7,70.3,29.64,West,264,0.0,0.0,73,0.00,,,0.00,Wunderground v.1.15,2013-07-22 19:46:00,
2013-07-22 14:52:00,80.0,71.0,29.64,SSW,193,0.0,0.0,74,0.00,,,0.00,Wunderground v.1.15,2013-07-22 19:52:00,
2013-07-22 14:58:00,80.5,71.4,29.64,SSE,153,0.0,0.0,74,0.00,,,0.00,Wunderground v.1.15,2013-07-22 19:58:00,
2013-07-22 15:03:00,80.8,70.5,29.63,SSW,209,0.0,0.0,71,0.00,,,0.00,Wunderground v.1.15,2013-07-22 20:03:00,
2013-07-22 15:08:00,80.7,70.8,29.63,SW,234,0.0,0.0,72,0.00,,,0.00,Wunderground v.1.15,2013-07-22 20:08:00,
2013-07-22 15:15:00,80.8,71.7,29.63,ENE,78,0.0,0.0,74,0.00,,,0.00,Wunderground v.1.15,2013-07-22 20:15:00,
2013-07-22 15:17:00,80.7,71.2,29.63,SW,228,0.0,0.0,73,0.00,,,0.00,Wunderground v.1.15,2013-07-22 20:17:00,
2013-07-22 15:19:00,80.6,71.1,29.63,SW,234,0.0,0.0,73,0.00,,,0.00,Wunderground v.1.15,2013-07-22 20:19:00,
2013-07-22 15:20:00,80.6,71.1,29.63,SW,217,0.0,0.0,73,0.00,,,0.00,Wunderground v.1.15,2013-07-22 20:20:00,
2013-07-22 15:23:00,80.9,71.4,29.62,WSW,257,0.0,0.0,73,0.00,,,0.00,Wunderground v.1.15,2013-07-22 20:23:00,
2013-07-22 15:27:00,81.5,72.0,29.62,SW,236,0.0,0.0,73,0.00,,,0.00,Wunderground v.1.15,2013-07-22 20:27:00,
2013-07-22 15:33:00,82.5,71.7,29.62,SW,216,0.0,0.0,70,0.00,,,0.00,Wunderground v.1.15,2013-07-22 20:33:00,
2013-07-22 15:38:00,82.1,70.9,29.62,SSW,194,0.0,0.0,69,0.00,,,0.00,Wunderground v.1.15,2013-07-22 20:38:00,
2013-07-22 15:43:00,81.5,71.2,29.62,SSW,202,0.0,0.0,71,0.00,,,0.00,Wunderground v.1.15,2013-07-22 20:43:00,
2013-07-22 15:49:00,81.5,71.6,29.62,SW,232,0.0,0.0,72,0.00,,,0.00,Wunderground v.1.15,2013-07-22 20:49:00,
2013-07-22 15:55:00,81.6,70.9,29.62,WSW,246,0.0,0.0,70,0.00,,,0.00,Wunderground v.1.15,2013-07-22 20:55:00,
2013-07-22 16:01:00,81.8,71.1,29.62,South,190,0.0,0.0,70,0.00,,,0.00,Wunderground v.1.15,2013-07-22 21:01:00,
2013-07-22 16:06:00,81.9,71.2,29.61,NW,306,0.0,0.0,70,0.00,,,0.00,Wunderground v.1.15,2013-07-22 21:06:00,
2013-07-22 16:11:00,81.4,70.7,29.60,SSW,203,0.0,0.0,70,0.00,,,0.00,Wunderground v.1.15,2013-07-22 21:11:00,
2013-07-22 16:17:00,81.0,70.7,29.60,SSW,209,0.0,0.0,71,0.00,,,0.00,Wunderground v.1.15,2013-07-22 21:17:00,
2013-07-22 16:22:00,80.8,70.5,29.60,WSW,253,0.0,0.0,71,0.00,,,0.00,Wunderground v.1.15,2013-07-22 21:22:00,
2013-07-22 16:27:00,80.6,70.3,29.60,SSW,196,0.0,0.0,71,0.00,,,0.00,Wunderground v.1.15,2013-07-22 21:27:00,
2013-07-22 16:33:00,80.3,70.4,29.60,SSW,207,0.0,0.0,72,0.00,,,0.00,Wunderground v.1.15,2013-07-22 21:33:00,
2013-07-22 16:39:00,80.1,70.3,29.60,WSW,257,0.0,0.0,72,0.00,,,0.00,Wunderground v.1.15,2013-07-22 21:39:00,
2013-07-22 16:45:00,79.9,70.1,29.60,WSW,242,0.0,0.0,72,0.00,,,0.00,Wunderground v.1.15,2013-07-22 21:45:00,
2013-07-22 16:50:00,79.8,70.4,29.60,WSW,255,0.0,0.0,73,0.00,,,0.00,Wunderground v.1.15,2013-07-22 21:50:00,
2013-07-22 16:56:00,79.6,69.8,29.59,SW,214,0.0,0.0,72,0.00,,,0.00,Wunderground v.1.15,2013-07-22 21:56:00,
2013-07-22 17:03:00,79.4,70.0,29.60,WSW,250,0.0,0.0,73,0.00,,,0.00,Wunderground v.1.15,2013-07-22 22:03:00,
2013-07-22 17:08:00,79.2,70.2,29.60,SW,236,0.0,0.0,74,0.00,,,0.00,Wunderground v.1.15,2013-07-22 22:08:00,
2013-07-22 17:13:00,79.0,70.0,29.60,SW,216,0.0,0.0,74,0.00,,,0.00,Wunderground v.1.15,2013-07-22 22:13:00,
2013-07-22 17:19:00,78.8,69.8,29.59,SSW,213,0.0,0.0,74,0.00,,,0.00,Wunderground v.1.15,2013-07-22 22:19:00,
2013-07-22 17:25:00,78.7,70.1,29.58,SW,235,0.0,0.0,75,0.00,,,0.00,Wunderground v.1.15,2013-07-22 22:25:00,
2013-07-22 17:31:00,78.7,70.5,29.59,SW,225,0.0,0.0,76,0.00,,,0.00,Wunderground v.1.15,2013-07-22 22:31:00,
2013-07-22 17:37:00,78.6,70.4,29.59,WSW,247,0.0,0.0,76,0.00,,,0.00,Wunderground v.1.15,2013-07-22 22:37:00,
2013-07-22 17:43:00,78.6,70.8,29.59,WSW,244,0.0,0.0,77,0.00,,,0.00,Wunderground v.1.15,2013-07-22 22:43:00,
2013-07-22 17:49:00,78.7,70.9,29.60,West,263,0.0,0.0,77,0.00,,,0.00,Wunderground v.1.15,2013-07-22 22:49:00,
2013-07-22 17:55:00,78.8,71.0,29.59,WSW,238,0.0,0.0,77,0.00,,,0.00,Wunderground v.1.15,2013-07-22 22:55:00,
2013-07-22 18:01:00,78.8,71.0,29.60,West,261,0.0,0.0,77,0.00,,,0.00,Wunderground v.1.15,2013-07-22 23:01:00,
2013-07-22 18:06:00,79.1,71.3,29.59,WSW,244,0.0,0.0,77,0.00,,,0.00,Wunderground v.1.15,2013-07-22 23:06:00,
2013-07-22 18:11:00,80.3,71.6,29.59,SW,225,0.0,0.0,75,0.00,,,0.00,Wunderground v.1.15,2013-07-22 23:11:00,
2013-07-22 18:17:00,81.0,71.9,29.60,WSW,254,0.0,0.0,74,0.00,,,0.00,Wunderground v.1.15,2013-07-22 23:17:00,
2013-07-22 18:23:00,80.3,71.6,29.59,WSW,248,0.0,0.0,75,0.00,,,0.00,Wunderground v.1.15,2013-07-22 23:23:00,
2013-07-22 18:29:00,79.5,71.3,29.59,West,267,0.0,0.0,76,0.00,,,0.00,Wunderground v.1.15,2013-07-22 23:29:00,
2013-07-22 18:34:00,78.9,71.1,29.58,WSW,249,0.0,0.0,77,0.00,,,0.00,Wunderground v.1.15,2013-07-22 23:34:00,
2013-07-22 18:40:00,78.4,71.0,29.58,WSW,253,0.0,0.0,78,0.00,,,0.00,Wunderground v.1.15,2013-07-22 23:40:00,
2013-07-22 18:46:00,78.1,71.1,29.58,West,267,0.0,0.0,79,0.00,,,0.00,Wunderground v.1.15,2013-07-22 23:46:00,
2013-07-22 18:52:00,77.9,71.2,29.59,SW,218,0.0,0.0,80,0.00,,,0.00,Wunderground v.1.15,2013-07-22 23:52:00,
2013-07-22 18:57:00,77.7,71.0,29.58,West,273,0.0,0.0,80,0.00,,,0.00,Wunderground v.1.15,2013-07-22 23:57:00,
2013-07-22 19:03:00,77.6,71.3,29.60,WSW,250,0.0,0.0,81,0.00,,,0.00,Wunderground v.1.15,2013-07-23 00:03:00,
2013-07-22 19:08:00,77.6,70.9,29.60,WSW,238,0.0,0.0,80,0.00,,,0.00,Wunderground v.1.15,2013-07-23 00:08:00,
2013-07-22 19:13:00,77.4,70.0,29.60,WSW,257,0.0,0.0,78,0.00,,,0.00,Wunderground v.1.15,2013-07-23 00:13:00,
2013-07-22 19:18:00,77.4,69.6,29.61,WSW,252,0.0,0.0,77,0.00,,,0.00,Wunderground v.1.15,2013-07-23 00:18:00,
2013-07-22 19:23:00,77.1,69.7,29.59,SSW,213,0.0,0.0,78,0.00,,,0.00,Wunderground v.1.15,2013-07-23 00:23:00,
2013-07-22 19:28:00,76.8,69.0,29.58,WSW,239,0.0,0.0,77,0.00,,,0.00,Wunderground v.1.15,2013-07-23 00:28:00,
2013-07-22 19:34:00,76.6,68.5,29.59,West,266,0.0,0.0,76,0.00,,,0.00,Wunderground v.1.15,2013-07-23 00:34:00,
2013-07-22 19:40:00,76.3,67.8,29.58,WSW,238,0.0,0.0,75,0.00,,,0.00,Wunderground v.1.15,2013-07-23 00:40:00,
2013-07-22 19:45:00,76.1,67.6,29.59,West,271,0.0,0.0,75,0.00,,,0.00,Wunderground v.1.15,2013-07-23 00:45:00,
2013-07-22 19:51:00,76.0,67.5,29.59,WSW,255,0.0,0.0,75,0.00,,,0.00,Wunderground v.1.15,2013-07-23 00:51:00,
2013-07-22 19:56:00,75.8,67.7,29.59,WSW,246,0.0,0.0,76,0.00,,,0.00,Wunderground v.1.15,2013-07-23 00:56:00,
2013-07-22 20:03:00,75.7,67.6,29.59,West,275,0.0,0.0,76,0.00,,,0.00,Wunderground v.1.15,2013-07-23 01:03:00,
2013-07-22 20:08:00,75.7,67.6,29.60,West,262,0.0,0.0,76,0.00,,,0.00,Wunderground v.1.15,2013-07-23 01:08:00,
2013-07-22 20:14:00,75.6,67.5,29.60,West,265,0.0,0.0,76,0.00,,,0.00,Wunderground v.1.15,2013-07-23 01:14:00,
2013-07-22 20:20:00,75.6,67.9,29.60,West,276,0.0,0.0,77,0.00,,,0.00,Wunderground v.1.15,2013-07-23 01:20:00,
2013-07-22 20:25:00,75.5,67.8,29.61,WNW,286,0.0,0.0,77,0.00,,,0.00,Wunderground v.1.15,2013-07-23 01:25:00,
2013-07-22 20:30:00,75.5,68.9,29.60,NW,308,0.0,0.0,80,0.00,,,0.00,Wunderground v.1.15,2013-07-23 01:30:00,
2013-07-22 20:36:00,75.3,68.3,29.59,WSW,257,0.0,0.0,79,0.00,,,0.00,Wunderground v.1.15,2013-07-23 01:36:00,
2013-07-22 20:41:00,74.9,68.3,29.59,West,267,0.0,0.0,80,0.00,,,0.00,Wunderground v.1.15,2013-07-23 01:41:00,
2013-07-22 20:47:00,74.4,67.8,29.60,WNW,288,0.0,0.0,80,0.00,,,0.00,Wunderground v.1.15,2013-07-23 01:47:00,
2013-07-22 20:52:00,73.9,67.3,29.59,WNW,287,0.0,0.0,80,0.00,,,0.00,Wunderground v.1.15,2013-07-23 01:52:00,
2013-07-22 20:57:00,73.5,66.9,29.59,WNW,302,0.0,0.0,80,0.00,,,0.00,Wunderground v.1.15,2013-07-23 01:57:00,
2013-07-22 21:03:00,73.4,66.9,29.59,WNW,294,0.0,0.0,80,0.00,,,0.00,Wunderground v.1.15,2013-07-23 02:03:00,
2013-07-22 21:08:00,73.1,66.9,29.60,West,265,0.0,0.0,81,0.00,,,0.00,Wunderground v.1.15,2013-07-23 02:08:00,
2013-07-22 21:14:00,72.7,66.5,29.61,West,276,0.0,0.0,81,0.00,,,0.00,Wunderground v.1.15,2013-07-23 02:14:00,
2013-07-22 21:20:00,72.5,66.7,29.61,WNW,294,0.0,0.0,82,0.00,,,0.00,Wunderground v.1.15,2013-07-23 02:20:00,
2013-07-22 21:26:00,72.6,66.8,29.61,WNW,298,0.0,0.0,82,0.00,,,0.00,Wunderground v.1.15,2013-07-23 02:26:00,
2013-07-22 21:31:00,72.6,66.8,29.62,WNW,303,0.0,0.0,82,0.00,,,0.00,Wunderground v.1.15,2013-07-23 02:31:00,
2013-07-22 21:37:00,72.4,66.6,29.62,NNW,348,0.0,0.0,82,0.00,,,0.00,Wunderground v.1.15,2013-07-23 02:37:00,
2013-07-22 21:43:00,72.3,66.5,29.63,NNE,16,0.0,0.0,82,0.00,,,0.00,Wunderground v.1.15,2013-07-23 02:43:00,
2013-07-22 21:48:00,72.1,66.3,29.63,NNE,26,0.0,0.0,82,0.00,,,0.00,Wunderground v.1.15,2013-07-23 02:48:00,
2013-07-22 21:53:00,71.6,66.2,29.64,NE,46,0.0,0.0,83,0.00,,,0.00,Wunderground v.1.15,2013-07-23 02:53:00,
2013-07-22 21:59:00,71.3,65.9,29.65,NE,45,0.0,0.0,83,0.00,,,0.00,Wunderground v.1.15,2013-07-23 02:59:00,
2013-07-22 22:05:00,71.0,65.9,29.65,NNE,30,0.0,0.0,84,0.00,,,0.00,Wunderground v.1.15,2013-07-23 03:05:00,
2013-07-22 22:11:00,70.8,65.7,29.66,NNW,346,0.0,0.0,84,0.00,,,0.00,Wunderground v.1.15,2013-07-23 03:11:00,
2013-07-22 22:17:00,70.5,65.1,29.66,NE,50,0.0,0.0,83,0.00,,,0.00,Wunderground v.1.15,2013-07-23 03:17:00,
2013-07-22 22:22:00,70.3,64.5,29.66,North,355,0.0,0.0,82,0.00,,,0.00,Wunderground v.1.15,2013-07-23 03:22:00,
2013-07-22 22:28:00,70.0,64.2,29.66,North,5,0.0,0.0,82,0.00,,,0.00,Wunderground v.1.15,2013-07-23 03:28:00,
2013-07-22 22:34:00,69.7,64.0,29.66,NNE,12,0.0,0.0,82,0.00,,,0.00,Wunderground v.1.15,2013-07-23 03:34:00,
2013-07-22 22:40:00,69.3,63.2,29.66,ENE,57,0.0,0.0,81,0.00,,,0.00,Wunderground v.1.15,2013-07-23 03:40:00,
2013-07-22 22:46:00,69.0,62.9,29.67,NNE,23,0.0,0.0,81,0.00,,,0.00,Wunderground v.1.15,2013-07-23 03:46:00,
2013-07-22 22:52:00,68.7,62.3,29.68,NE,51,0.0,0.0,80,0.00,,,0.00,Wunderground v.1.15,2013-07-23 03:52:00,
2013-07-22 22:58:00,68.5,61.4,29.68,NNE,25,0.0,0.0,78,0.00,,,0.00,Wunderground v.1.15,2013-07-23 03:58:00,
2013-07-22 23:01:00,68.4,60.5,29.68,NNW,331,0.0,0.0,76,0.00,,,0.00,Wunderground v.1.15,2013-07-23 04:01:00,
2013-07-22 23:03:00,68.3,60.4,29.68,NNE,28,0.0,0.0,76,0.00,,,0.00,Wunderground v.1.15,2013-07-23 04:03:00,
2013-07-22 23:04:00,68.2,60.3,29.69,NNE,15,0.0,0.0,76,0.00,,,0.00,Wunderground v.1.15,2013-07-23 04:04:00,
2013-07-22 23:05:00,68.2,60.3,29.68,North,5,0.0,0.0,76,0.00,,,0.00,Wunderground v.1.15,2013-07-23 04:05:00,
2013-07-22 23:06:00,68.1,60.2,29.68,NNW,335,0.0,0.0,76,0.00,,,0.00,Wunderground v.1.15,2013-07-23 04:06:00,
2013-07-22 23:12:00,67.9,59.7,29.69,NNW,340,0.0,0.0,75,0.00,,,0.00,Wunderground v.1.15,2013-07-23 04:12:00,
2013-07-22 23:17:00,67.6,59.4,29.69,NNW,348,0.0,0.0,75,0.00,,,0.00,Wunderground v.1.15,2013-07-23 04:17:00,
2013-07-22 23:23:00,67.4,59.2,29.69,NNE,14,0.0,0.0,75,0.00,,,0.00,Wunderground v.1.15,2013-07-23 04:23:00,
2013-07-22 23:29:00,67.1,58.9,29.69,North,5,0.0,0.0,75,0.00,,,0.00,Wunderground v.1.15,2013-07-23 04:29:00,
2013-07-22 23:35:00,66.9,58.7,29.70,NNE,30,0.0,0.0,75,0.00,,,0.00,Wunderground v.1.15,2013-07-23 04:35:00,
2013-07-22 23:40:00,66.7,58.9,29.69,North,5,0.0,0.0,76,0.00,,,0.00,Wunderground v.1.15,2013-07-23 04:40:00,
2013-07-22 23:45:00,66.4,58.6,29.69,NNW,345,0.0,0.0,76,0.00,,,0.00,Wunderground v.1.15,2013-07-23 04:45:00,
2013-07-22 23:51:00,66.0,58.6,29.69,North,355,0.0,0.0,77,0.00,,,0.00,Wunderground v.1.15,2013-07-23 04:51:00,
2013-07-22 23:57:00,65.6,58.6,29.70,NW,326,0.0,0.0,78,0.00,,,0.00,Wunderground v.1.15,2013-07-23 04:57:00,